sensor_id;sensor_type;location;lat;lon;timestamp;P1;durP1;ratioP1;P2;durP2;ratioP2
18503;SDS011;9381;54.244;10.074;2022-07-06T00:03:17;7.45;;;2.25;;
18503;SDS011;9381;54.244;10.074;2022-07-06T00:08:17;11.53;;;2.50;;
18503;SDS011;9381;54.244;10.074;2022-07-06T00:13:17;5.20;;;2.17;;
18503;SDS011;9381;54.244;10.074;2022-07-06T00:18:18;5.00;;;2.00;;
18503;SDS011;9381;54.244;10.074;2022-07-06T00:23:18;5.50;;;2.00;;
18503;SDS011;9381;54.244;10.074;2022-07-06T00:28:18;3.67;;;1.80;;
18503;SDS011;9381;54.244;10.074;2022-07-06T00:33:19;6.43;;;1.90;;
18503;SDS011;9381;54.244;10.074;2022-07-06T00:38:20;4.77;;;1.90;;
18503;SDS011;9381;54.244;10.074;2022-07-06T00:43:20;3.63;;;1.33;;
18503;SDS011;9381;54.244;10.074;2022-07-06T00:48:20;3.58;;;1.40;;
18503;SDS011;9381;54.244;10.074;2022-07-06T00:53:21;8.30;;;2.10;;
18503;SDS011;9381;54.244;10.074;2022-07-06T00:58:21;3.73;;;1.40;;
18503;SDS011;9381;54.244;10.074;2022-07-06T01:03:22;5.37;;;1.47;;
18503;SDS011;9381;54.244;10.074;2022-07-06T01:08:22;9.13;;;1.70;;
18503;SDS011;9381;54.244;10.074;2022-07-06T01:13:23;5.93;;;1.70;;
18503;SDS011;9381;54.244;10.074;2022-07-06T01:18:25;6.97;;;1.83;;
18503;SDS011;9381;54.244;10.074;2022-07-06T01:23:26;5.03;;;1.67;;
18503;SDS011;9381;54.244;10.074;2022-07-06T01:28:26;5.03;;;1.50;;
18503;SDS011;9381;54.244;10.074;2022-07-06T01:33:26;5.07;;;2.37;;
18503;SDS011;9381;54.244;10.074;2022-07-06T01:38:27;5.43;;;2.10;;
18503;SDS011;9381;54.244;10.074;2022-07-06T01:43:27;5.27;;;2.00;;
18503;SDS011;9381;54.244;10.074;2022-07-06T01:48:28;7.33;;;1.80;;
18503;SDS011;9381;54.244;10.074;2022-07-06T01:53:28;5.50;;;1.80;;
18503;SDS011;9381;54.244;10.074;2022-07-06T01:58:28;8.27;;;2.40;;
18503;SDS011;9381;54.244;10.074;2022-07-06T02:03:29;4.03;;;1.83;;
18503;SDS011;9381;54.244;10.074;2022-07-06T02:08:29;4.03;;;1.70;;
18503;SDS011;9381;54.244;10.074;2022-07-06T02:13:29;4.67;;;1.93;;
18503;SDS011;9381;54.244;10.074;2022-07-06T02:18:30;5.95;;;2.00;;
18503;SDS011;9381;54.244;10.074;2022-07-06T02:23:30;4.68;;;1.70;;
18503;SDS011;9381;54.244;10.074;2022-07-06T02:28:30;4.65;;;1.48;;
18503;SDS011;9381;54.244;10.074;2022-07-06T02:33:31;5.10;;;1.90;;
18503;SDS011;9381;54.244;10.074;2022-07-06T02:38:31;4.60;;;1.73;;
18503;SDS011;9381;54.244;10.074;2022-07-06T02:43:32;7.07;;;1.67;;
18503;SDS011;9381;54.244;10.074;2022-07-06T02:48:32;5.07;;;1.80;;
18503;SDS011;9381;54.244;10.074;2022-07-06T02:53:32;4.13;;;1.25;;
18503;SDS011;9381;54.244;10.074;2022-07-06T02:58:32;6.27;;;1.30;;
18503;SDS011;9381;54.244;10.074;2022-07-06T03:03:33;4.43;;;1.30;;
18503;SDS011;9381;54.244;10.074;2022-07-06T03:08:33;3.00;;;1.30;;
18503;SDS011;9381;54.244;10.074;2022-07-06T03:13:34;3.30;;;1.30;;
18503;SDS011;9381;54.244;10.074;2022-07-06T03:18:35;3.67;;;1.10;;
18503;SDS011;9381;54.244;10.074;2022-07-06T03:23:35;3.83;;;1.10;;
18503;SDS011;9381;54.244;10.074;2022-07-06T03:28:35;3.35;;;1.20;;
18503;SDS011;9381;54.244;10.074;2022-07-06T03:33:36;4.15;;;1.58;;
18503;SDS011;9381;54.244;10.074;2022-07-06T03:38:36;4.90;;;1.40;;
18503;SDS011;9381;54.244;10.074;2022-07-06T03:43:36;2.40;;;1.23;;
18503;SDS011;9381;54.244;10.074;2022-07-06T03:48:37;3.53;;;1.53;;
18503;SDS011;9381;54.244;10.074;2022-07-06T03:53:38;4.60;;;1.40;;
18503;SDS011;9381;54.244;10.074;2022-07-06T03:58:38;2.45;;;1.40;;
18503;SDS011;9381;54.244;10.074;2022-07-06T04:03:38;5.70;;;1.63;;
18503;SDS011;9381;54.244;10.074;2022-07-06T04:08:39;4.30;;;1.73;;
18503;SDS011;9381;54.244;10.074;2022-07-06T04:13:39;3.33;;;1.40;;
18503;SDS011;9381;54.244;10.074;2022-07-06T04:18:40;3.83;;;1.73;;
18503;SDS011;9381;54.244;10.074;2022-07-06T04:23:40;4.68;;;1.77;;
18503;SDS011;9381;54.244;10.074;2022-07-06T04:28:41;4.43;;;1.40;;
18503;SDS011;9381;54.244;10.074;2022-07-06T04:33:42;5.20;;;1.83;;
18503;SDS011;9381;54.244;10.074;2022-07-06T04:38:45;5.37;;;1.87;;
18503;SDS011;9381;54.244;10.074;2022-07-06T04:43:47;5.63;;;1.80;;
18503;SDS011;9381;54.244;10.074;2022-07-06T04:48:48;3.97;;;1.50;;
18503;SDS011;9381;54.244;10.074;2022-07-06T04:53:49;3.87;;;1.77;;
18503;SDS011;9381;54.244;10.074;2022-07-06T04:58:49;4.23;;;1.40;;
18503;SDS011;9381;54.244;10.074;2022-07-06T05:03:50;8.07;;;1.83;;
18503;SDS011;9381;54.244;10.074;2022-07-06T05:08:50;5.87;;;1.40;;
18503;SDS011;9381;54.244;10.074;2022-07-06T05:13:50;8.63;;;2.00;;
18503;SDS011;9381;54.244;10.074;2022-07-06T05:18:51;4.90;;;1.40;;
18503;SDS011;9381;54.244;10.074;2022-07-06T05:23:51;4.63;;;1.20;;
18503;SDS011;9381;54.244;10.074;2022-07-06T05:28:51;5.07;;;1.33;;
18503;SDS011;9381;54.244;10.074;2022-07-06T05:33:52;4.40;;;1.37;;
18503;SDS011;9381;54.244;10.074;2022-07-06T05:38:52;3.80;;;1.20;;
18503;SDS011;9381;54.244;10.074;2022-07-06T05:43:52;3.07;;;1.10;;
18503;SDS011;9381;54.244;10.074;2022-07-06T05:48:53;3.10;;;1.00;;
18503;SDS011;9381;54.244;10.074;2022-07-06T05:54:12;4.07;;;1.00;;
18503;SDS011;9381;54.244;10.074;2022-07-06T05:59:12;2.57;;;0.83;;
18503;SDS011;9381;54.244;10.074;2022-07-06T06:04:12;3.28;;;1.10;;
18503;SDS011;9381;54.244;10.074;2022-07-06T06:09:13;2.10;;;0.83;;
18503;SDS011;9381;54.244;10.074;2022-07-06T06:14:14;4.07;;;1.00;;
18503;SDS011;9381;54.244;10.074;2022-07-06T06:19:14;1.52;;;0.90;;
18503;SDS011;9381;54.244;10.074;2022-07-06T06:24:15;2.90;;;0.83;;
18503;SDS011;9381;54.244;10.074;2022-07-06T06:29:15;2.77;;;0.90;;
18503;SDS011;9381;54.244;10.074;2022-07-06T06:34:16;1.30;;;0.80;;
18503;SDS011;9381;54.244;10.074;2022-07-06T06:39:16;3.43;;;1.10;;
18503;SDS011;9381;54.244;10.074;2022-07-06T06:44:16;3.90;;;0.80;;
18503;SDS011;9381;54.244;10.074;2022-07-06T06:49:18;2.33;;;0.90;;
18503;SDS011;9381;54.244;10.074;2022-07-06T06:54:18;2.63;;;0.70;;
18503;SDS011;9381;54.244;10.074;2022-07-06T06:59:19;2.15;;;0.82;;
18503;SDS011;9381;54.244;10.074;2022-07-06T07:04:19;1.80;;;0.90;;
18503;SDS011;9381;54.244;10.074;2022-07-06T07:09:19;2.77;;;1.00;;
18503;SDS011;9381;54.244;10.074;2022-07-06T07:14:20;5.97;;;1.27;;
18503;SDS011;9381;54.244;10.074;2022-07-06T07:19:20;2.60;;;0.90;;
18503;SDS011;9381;54.244;10.074;2022-07-06T07:24:21;3.60;;;1.43;;
18503;SDS011;9381;54.244;10.074;2022-07-06T07:29:21;2.27;;;1.00;;
18503;SDS011;9381;54.244;10.074;2022-07-06T07:34:22;4.47;;;1.33;;
18503;SDS011;9381;54.244;10.074;2022-07-06T07:39:22;3.70;;;1.03;;
18503;SDS011;9381;54.244;10.074;2022-07-06T07:44:22;6.80;;;1.07;;
18503;SDS011;9381;54.244;10.074;2022-07-06T07:49:24;5.10;;;1.47;;
18503;SDS011;9381;54.244;10.074;2022-07-06T07:54:25;2.00;;;0.83;;
18503;SDS011;9381;54.244;10.074;2022-07-06T07:59:25;1.67;;;0.67;;
18503;SDS011;9381;54.244;10.074;2022-07-06T08:04:26;2.03;;;0.70;;
18503;SDS011;9381;54.244;10.074;2022-07-06T08:09:26;6.47;;;1.00;;
18503;SDS011;9381;54.244;10.074;2022-07-06T08:14:27;2.50;;;0.80;;
18503;SDS011;9381;54.244;10.074;2022-07-06T08:19:27;3.03;;;0.80;;
18503;SDS011;9381;54.244;10.074;2022-07-06T08:24:27;4.80;;;1.20;;
18503;SDS011;9381;54.244;10.074;2022-07-06T08:29:28;3.17;;;1.00;;
18503;SDS011;9381;54.244;10.074;2022-07-06T08:34:29;3.00;;;0.93;;
18503;SDS011;9381;54.244;10.074;2022-07-06T08:39:30;2.70;;;0.83;;
18503;SDS011;9381;54.244;10.074;2022-07-06T08:44:30;4.77;;;1.17;;
18503;SDS011;9381;54.244;10.074;2022-07-06T08:49:31;1.63;;;0.67;;
18503;SDS011;9381;54.244;10.074;2022-07-06T08:54:33;4.40;;;1.03;;
18503;SDS011;9381;54.244;10.074;2022-07-06T08:59:34;1.93;;;0.87;;
18503;SDS011;9381;54.244;10.074;2022-07-06T09:04:35;3.97;;;0.93;;
18503;SDS011;9381;54.244;10.074;2022-07-06T09:09:36;3.07;;;0.70;;
18503;SDS011;9381;54.244;10.074;2022-07-06T09:14:37;2.73;;;0.77;;
18503;SDS011;9381;54.244;10.074;2022-07-06T09:19:38;3.57;;;1.00;;
18503;SDS011;9381;54.244;10.074;2022-07-06T09:24:41;1.80;;;0.98;;
18503;SDS011;9381;54.244;10.074;2022-07-06T09:29:42;3.30;;;0.77;;
18503;SDS011;9381;54.244;10.074;2022-07-06T09:34:43;4.03;;;0.97;;
18503;SDS011;9381;54.244;10.074;2022-07-06T09:39:44;2.37;;;1.00;;
18503;SDS011;9381;54.244;10.074;2022-07-06T09:44:45;6.72;;;1.10;;
18503;SDS011;9381;54.244;10.074;2022-07-06T09:49:47;3.77;;;0.90;;
18503;SDS011;9381;54.244;10.074;2022-07-06T09:54:48;4.70;;;0.97;;
18503;SDS011;9381;54.244;10.074;2022-07-06T09:59:50;2.90;;;0.67;;
18503;SDS011;9381;54.244;10.074;2022-07-06T10:04:51;3.10;;;0.93;;
18503;SDS011;9381;54.244;10.074;2022-07-06T10:09:52;3.00;;;0.80;;
18503;SDS011;9381;54.244;10.074;2022-07-06T10:14:53;2.80;;;0.93;;
18503;SDS011;9381;54.244;10.074;2022-07-06T10:19:54;4.00;;;0.93;;
18503;SDS011;9381;54.244;10.074;2022-07-06T10:24:55;4.37;;;0.80;;
18503;SDS011;9381;54.244;10.074;2022-07-06T10:29:58;3.20;;;0.80;;
18503;SDS011;9381;54.244;10.074;2022-07-06T10:34:58;3.87;;;0.70;;
18503;SDS011;9381;54.244;10.074;2022-07-06T10:39:58;2.33;;;0.60;;
18503;SDS011;9381;54.244;10.074;2022-07-06T10:50:33;4.13;;;1.00;;
18503;SDS011;9381;54.244;10.074;2022-07-06T10:55:36;3.70;;;0.90;;
18503;SDS011;9381;54.244;10.074;2022-07-06T11:00:53;5.03;;;1.10;;
18503;SDS011;9381;54.244;10.074;2022-07-06T11:05:59;4.10;;;0.80;;
18503;SDS011;9381;54.244;10.074;2022-07-06T11:16:19;4.00;;;0.90;;
18503;SDS011;9381;54.244;10.074;2022-07-06T11:21:22;5.10;;;1.10;;
18503;SDS011;9381;54.244;10.074;2022-07-06T11:26:23;3.90;;;0.90;;
18503;SDS011;9381;54.244;10.074;2022-07-06T11:31:24;1.30;;;0.80;;
18503;SDS011;9381;54.244;10.074;2022-07-06T11:36:24;3.57;;;0.80;;
18503;SDS011;9381;54.244;10.074;2022-07-06T11:41:25;5.88;;;1.23;;
18503;SDS011;9381;54.244;10.074;2022-07-06T11:51:35;3.17;;;1.17;;
18503;SDS011;9381;54.244;10.074;2022-07-06T11:56:37;3.53;;;0.90;;
18503;SDS011;9381;54.244;10.074;2022-07-06T12:01:38;3.90;;;0.70;;
18503;SDS011;9381;54.244;10.074;2022-07-06T12:06:43;6.73;;;0.90;;
18503;SDS011;9381;54.244;10.074;2022-07-06T12:11:44;2.93;;;0.80;;
18503;SDS011;9381;54.244;10.074;2022-07-06T12:16:47;1.93;;;0.50;;
18503;SDS011;9381;54.244;10.074;2022-07-06T12:21:49;3.17;;;0.80;;
18503;SDS011;9381;54.244;10.074;2022-07-06T12:26:51;3.37;;;0.70;;
18503;SDS011;9381;54.244;10.074;2022-07-06T12:31:54;2.00;;;0.70;;
18503;SDS011;9381;54.244;10.074;2022-07-06T12:36:57;3.23;;;0.60;;
18503;SDS011;9381;54.244;10.074;2022-07-06T12:42:02;1.77;;;0.70;;
18503;SDS011;9381;54.244;10.074;2022-07-06T12:47:05;1.23;;;0.60;;
18503;SDS011;9381;54.244;10.074;2022-07-06T13:02:20;6.67;;;0.70;;
18503;SDS011;9381;54.244;10.074;2022-07-06T13:07:30;4.53;;;0.87;;
18503;SDS011;9381;54.244;10.074;2022-07-06T13:12:32;4.23;;;0.83;;
18503;SDS011;9381;54.244;10.074;2022-07-06T13:17:32;4.38;;;0.80;;
18503;SDS011;9381;54.244;10.074;2022-07-06T13:22:33;2.27;;;0.63;;
18503;SDS011;9381;54.244;10.074;2022-07-06T13:27:33;2.00;;;0.67;;
18503;SDS011;9381;54.244;10.074;2022-07-06T13:32:34;4.67;;;0.60;;
18503;SDS011;9381;54.244;10.074;2022-07-06T13:37:35;2.33;;;0.50;;
18503;SDS011;9381;54.244;10.074;2022-07-06T13:42:35;0.93;;;0.43;;
18503;SDS011;9381;54.244;10.074;2022-07-06T13:47:35;3.97;;;0.53;;
18503;SDS011;9381;54.244;10.074;2022-07-06T13:52:36;3.03;;;0.80;;
18503;SDS011;9381;54.244;10.074;2022-07-06T13:57:37;1.57;;;0.57;;
18503;SDS011;9381;54.244;10.074;2022-07-06T14:02:40;4.03;;;0.63;;
18503;SDS011;9381;54.244;10.074;2022-07-06T14:07:40;2.72;;;0.65;;
18503;SDS011;9381;54.244;10.074;2022-07-06T14:12:42;3.83;;;0.57;;
18503;SDS011;9381;54.244;10.074;2022-07-06T14:17:42;4.30;;;0.60;;
18503;SDS011;9381;54.244;10.074;2022-07-06T14:22:42;4.50;;;0.70;;
18503;SDS011;9381;54.244;10.074;2022-07-06T14:27:43;2.33;;;0.60;;
18503;SDS011;9381;54.244;10.074;2022-07-06T14:32:43;3.87;;;0.80;;
18503;SDS011;9381;54.244;10.074;2022-07-06T14:37:44;2.77;;;0.73;;
18503;SDS011;9381;54.244;10.074;2022-07-06T14:42:44;1.80;;;0.50;;
18503;SDS011;9381;54.244;10.074;2022-07-06T14:47:45;8.07;;;1.10;;
18503;SDS011;9381;54.244;10.074;2022-07-06T14:52:45;4.70;;;0.83;;
18503;SDS011;9381;54.244;10.074;2022-07-06T14:57:46;3.53;;;0.80;;
18503;SDS011;9381;54.244;10.074;2022-07-06T15:02:47;3.43;;;0.77;;
18503;SDS011;9381;54.244;10.074;2022-07-06T15:07:47;2.87;;;0.60;;
18503;SDS011;9381;54.244;10.074;2022-07-06T15:12:47;3.80;;;0.90;;
18503;SDS011;9381;54.244;10.074;2022-07-06T15:17:48;2.38;;;0.88;;
18503;SDS011;9381;54.244;10.074;2022-07-06T15:22:48;5.40;;;0.60;;
18503;SDS011;9381;54.244;10.074;2022-07-06T15:27:49;3.40;;;0.87;;
18503;SDS011;9381;54.244;10.074;2022-07-06T15:32:49;2.43;;;0.87;;
18503;SDS011;9381;54.244;10.074;2022-07-06T15:37:49;2.53;;;1.10;;
18503;SDS011;9381;54.244;10.074;2022-07-06T15:42:50;6.77;;;1.20;;
18503;SDS011;9381;54.244;10.074;2022-07-06T15:47:51;4.63;;;0.97;;
18503;SDS011;9381;54.244;10.074;2022-07-06T15:52:51;8.00;;;1.57;;
18503;SDS011;9381;54.244;10.074;2022-07-06T15:57:52;1.47;;;0.63;;
18503;SDS011;9381;54.244;10.074;2022-07-06T16:02:52;3.45;;;0.95;;
18503;SDS011;9381;54.244;10.074;2022-07-06T16:07:53;8.30;;;1.70;;
18503;SDS011;9381;54.244;10.074;2022-07-06T16:12:53;5.60;;;1.13;;
18503;SDS011;9381;54.244;10.074;2022-07-06T16:17:53;2.73;;;1.00;;
18503;SDS011;9381;54.244;10.074;2022-07-06T16:22:54;2.53;;;1.00;;
18503;SDS011;9381;54.244;10.074;2022-07-06T16:27:55;4.10;;;0.97;;
18503;SDS011;9381;54.244;10.074;2022-07-06T16:32:57;4.40;;;1.00;;
18503;SDS011;9381;54.244;10.074;2022-07-06T16:37:58;5.20;;;1.67;;
18503;SDS011;9381;54.244;10.074;2022-07-06T16:42:59;8.57;;;1.33;;
18503;SDS011;9381;54.244;10.074;2022-07-06T16:48:00;2.33;;;0.90;;
18503;SDS011;9381;54.244;10.074;2022-07-06T16:53:00;4.37;;;1.10;;
18503;SDS011;9381;54.244;10.074;2022-07-06T16:58:00;6.80;;;1.30;;
18503;SDS011;9381;54.244;10.074;2022-07-06T17:03:01;6.63;;;1.23;;
18503;SDS011;9381;54.244;10.074;2022-07-06T17:08:01;6.83;;;1.30;;
18503;SDS011;9381;54.244;10.074;2022-07-06T17:13:02;4.13;;;1.37;;
18503;SDS011;9381;54.244;10.074;2022-07-06T17:18:02;4.97;;;1.47;;
18503;SDS011;9381;54.244;10.074;2022-07-06T17:23:03;4.17;;;1.30;;
18503;SDS011;9381;54.244;10.074;2022-07-06T17:28:03;4.27;;;1.40;;
18503;SDS011;9381;54.244;10.074;2022-07-06T17:33:04;4.77;;;1.57;;
18503;SDS011;9381;54.244;10.074;2022-07-06T17:38:04;5.47;;;1.63;;
18503;SDS011;9381;54.244;10.074;2022-07-06T17:43:04;3.10;;;1.10;;
18503;SDS011;9381;54.244;10.074;2022-07-06T17:48:05;4.63;;;1.20;;
18503;SDS011;9381;54.244;10.074;2022-07-06T17:53:06;5.60;;;1.47;;
18503;SDS011;9381;54.244;10.074;2022-07-06T17:58:06;4.73;;;1.30;;
18503;SDS011;9381;54.244;10.074;2022-07-06T18:03:07;6.13;;;1.37;;
18503;SDS011;9381;54.244;10.074;2022-07-06T18:08:07;7.70;;;1.70;;
18503;SDS011;9381;54.244;10.074;2022-07-06T18:13:08;7.15;;;1.92;;
18503;SDS011;9381;54.244;10.074;2022-07-06T18:18:08;4.13;;;1.80;;
18503;SDS011;9381;54.244;10.074;2022-07-06T18:23:08;2.63;;;1.70;;
18503;SDS011;9381;54.244;10.074;2022-07-06T18:28:10;6.37;;;1.47;;
18503;SDS011;9381;54.244;10.074;2022-07-06T18:33:16;4.70;;;1.97;;
18503;SDS011;9381;54.244;10.074;2022-07-06T18:38:16;8.47;;;1.67;;
18503;SDS011;9381;54.244;10.074;2022-07-06T18:43:17;6.00;;;2.10;;
18503;SDS011;9381;54.244;10.074;2022-07-06T18:48:17;7.87;;;2.00;;
18503;SDS011;9381;54.244;10.074;2022-07-06T18:53:18;5.37;;;1.83;;
18503;SDS011;9381;54.244;10.074;2022-07-06T18:58:19;5.53;;;1.60;;
18503;SDS011;9381;54.244;10.074;2022-07-06T19:03:20;2.27;;;1.67;;
18503;SDS011;9381;54.244;10.074;2022-07-06T19:08:20;4.77;;;1.90;;
18503;SDS011;9381;54.244;10.074;2022-07-06T19:13:21;2.83;;;1.70;;
18503;SDS011;9381;54.244;10.074;2022-07-06T19:18:21;4.33;;;1.63;;
18503;SDS011;9381;54.244;10.074;2022-07-06T19:23:21;2.20;;;1.83;;
18503;SDS011;9381;54.244;10.074;2022-07-06T19:28:22;4.20;;;2.10;;
18503;SDS011;9381;54.244;10.074;2022-07-06T19:33:22;3.67;;;2.30;;
18503;SDS011;9381;54.244;10.074;2022-07-06T19:38:22;5.32;;;3.25;;
18503;SDS011;9381;54.244;10.074;2022-07-06T19:43:23;4.87;;;2.60;;
18503;SDS011;9381;54.244;10.074;2022-07-06T19:48:23;4.00;;;2.65;;
18503;SDS011;9381;54.244;10.074;2022-07-06T19:53:23;3.20;;;2.50;;
18503;SDS011;9381;54.244;10.074;2022-07-06T19:58:28;2.40;;;2.20;;
18503;SDS011;9381;54.244;10.074;2022-07-06T20:03:29;4.97;;;2.90;;
18503;SDS011;9381;54.244;10.074;2022-07-06T20:08:29;4.53;;;2.77;;
18503;SDS011;9381;54.244;10.074;2022-07-06T20:13:30;2.83;;;2.40;;
18503;SDS011;9381;54.244;10.074;2022-07-06T20:18:30;3.03;;;2.63;;
18503;SDS011;9381;54.244;10.074;2022-07-06T20:23:31;3.10;;;2.80;;
18503;SDS011;9381;54.244;10.074;2022-07-06T20:28:31;4.73;;;2.97;;
18503;SDS011;9381;54.244;10.074;2022-07-06T20:33:33;4.23;;;3.50;;
18503;SDS011;9381;54.244;10.074;2022-07-06T20:38:34;4.03;;;3.47;;
18503;SDS011;9381;54.244;10.074;2022-07-06T20:43:35;4.83;;;3.70;;
18503;SDS011;9381;54.244;10.074;2022-07-06T20:48:35;7.73;;;4.23;;
18503;SDS011;9381;54.244;10.074;2022-07-06T20:53:35;7.67;;;4.57;;
18503;SDS011;9381;54.244;10.074;2022-07-06T20:58:36;5.53;;;4.68;;
18503;SDS011;9381;54.244;10.074;2022-07-06T21:03:36;6.30;;;4.87;;
18503;SDS011;9381;54.244;10.074;2022-07-06T21:08:37;7.83;;;5.00;;
18503;SDS011;9381;54.244;10.074;2022-07-06T21:13:37;8.93;;;5.07;;
18503;SDS011;9381;54.244;10.074;2022-07-06T21:18:38;10.47;;;5.83;;
18503;SDS011;9381;54.244;10.074;2022-07-06T21:23:38;8.00;;;6.13;;
18503;SDS011;9381;54.244;10.074;2022-07-06T21:28:39;9.47;;;6.37;;
18503;SDS011;9381;54.244;10.074;2022-07-06T21:33:40;8.87;;;6.93;;
18503;SDS011;9381;54.244;10.074;2022-07-06T21:38:40;9.97;;;7.17;;
18503;SDS011;9381;54.244;10.074;2022-07-06T21:43:40;11.90;;;8.13;;
18503;SDS011;9381;54.244;10.074;2022-07-06T21:48:41;10.47;;;9.50;;
18503;SDS011;9381;54.244;10.074;2022-07-06T21:53:41;13.10;;;10.90;;
18503;SDS011;9381;54.244;10.074;2022-07-06T21:58:42;12.13;;;10.95;;
18503;SDS011;9381;54.244;10.074;2022-07-06T22:03:42;14.87;;;13.27;;
18503;SDS011;9381;54.244;10.074;2022-07-06T22:08:42;17.03;;;15.20;;
18503;SDS011;9381;54.244;10.074;2022-07-06T22:13:43;15.97;;;14.37;;
18503;SDS011;9381;54.244;10.074;2022-07-06T22:18:44;17.57;;;15.97;;
18503;SDS011;9381;54.244;10.074;2022-07-06T22:23:46;16.87;;;15.33;;
18503;SDS011;9381;54.244;10.074;2022-07-06T22:28:47;19.03;;;17.03;;
18503;SDS011;9381;54.244;10.074;2022-07-06T22:33:50;17.80;;;16.10;;
18503;SDS011;9381;54.244;10.074;2022-07-06T22:38:51;17.53;;;15.93;;
18503;SDS011;9381;54.244;10.074;2022-07-06T22:43:51;16.88;;;15.38;;
18503;SDS011;9381;54.244;10.074;2022-07-06T22:48:52;18.13;;;16.33;;
18503;SDS011;9381;54.244;10.074;2022-07-06T22:53:52;16.37;;;14.87;;
18503;SDS011;9381;54.244;10.074;2022-07-06T22:58:53;17.93;;;16.10;;
18503;SDS011;9381;54.244;10.074;2022-07-06T23:03:53;16.70;;;15.20;;
18503;SDS011;9381;54.244;10.074;2022-07-06T23:08:54;16.33;;;14.83;;
18503;SDS011;9381;54.244;10.074;2022-07-06T23:13:56;16.27;;;14.87;;
18503;SDS011;9381;54.244;10.074;2022-07-06T23:18:56;14.13;;;12.93;;
18503;SDS011;9381;54.244;10.074;2022-07-06T23:23:56;14.47;;;13.17;;
18503;SDS011;9381;54.244;10.074;2022-07-06T23:28:57;13.93;;;12.13;;
18503;SDS011;9381;54.244;10.074;2022-07-06T23:33:57;12.87;;;11.67;;
18503;SDS011;9381;54.244;10.074;2022-07-06T23:38:58;12.17;;;11.17;;
18503;SDS011;9381;54.244;10.074;2022-07-06T23:43:59;11.73;;;10.73;;
18503;SDS011;9381;54.244;10.074;2022-07-06T23:48:59;11.90;;;10.80;;
18503;SDS011;9381;54.244;10.074;2022-07-06T23:53:59;11.17;;;10.17;;
18503;SDS011;9381;54.244;10.074;2022-07-06T23:59:00;10.70;;;9.70;;
